Ormond Beach, Florida
Current Conditions -  °F | °C
As of 7:53 PM on Saturday 22 Nov 2014 (Local Time) from KDAB Reporting Station
Overcast Overcast  
Wind Chill: 73°   Ceiling: 3300
Heat Index: 73°   Visibility: 10mi
Dew Point: 64°   Wind: 10mph
Humidity: 73%   Direction: 100°E
Pressure: 30.17"   Gusts: NA
Location:  29.29°N, 81.05°W
Report Text: KDAB 230053Z 10009KT 10SM OVC033 23/18 A3017 RMK AO2 SLP216 T02280178
Loading
Personal Weather Stations






























Interactive Weather Map New forecast layout! Learn more

10-Day Weather Forecast

Advertisements
Track Severe Weather on mobile